ブエノスアイレス/エセイサ の空港の天気 - METARとTAF

エセイサ国際空港 ( SAEZ / EZE ) - アルゼンチン ブエノスアイレス州、Ezeiza
飛行場実況気象(Metar)
観測時間10/17 13:00 ART (10/17 16:00 UTC)
風向・風速東北東 5m/s
視程9000m
天気現象
なし
気温23℃
湿度78%
気圧1011hPa
METARSAEZ 171600Z 07010KT 9000 NSC 23/19 Q1011
過去の天気等 Google飛行場航空写真 Wunderground天気予報

過去48時間のMETAR

飛行場予報(TAF)
発表時間: 10/17 08:00 ART (10/17 11:00 UTC)
予報対象時間: 17日9時 ART ~ 18日9時 ART
風向・風速北 3m/s
視程10km以上
全天の4割程度の雲 雲底高度 1,070m
少しの塔状積雲 雲底高度 1,220m
全天の8割程度の雲 雲底高度 3,050m
17日12時 ART ~ 17日17時 ART に 確率 30% で一時的に
風向・風速北東 5m/s
視程7,000m
天気現象雷雨
全天の8割程度の雲 雲底高度 910m
全天の8割程度の雲 雲底高度 1,370m
少しの積乱雲 雲底高度 1,520m
18日1時 ART ~ 18日3時 ART に徐々に
風向・風速東 1m/s
視程2,000m
天気現象もや
全天の8割程度の雲 雲底高度 300m
全天の8割程度の雲 雲底高度 2,740m
18日4時 ART ~ 18日6時 ART に徐々に
風向・風速静穏
視程700m
天気現象
全天の8割程度の雲 雲底高度 210m
全天の8割程度の雲 雲底高度 2,740m
TAF SAEZ 171100Z 1712/1812 36005KT 9999 SCT035 FEW040TCU BKN100 TX27/1718Z TN19/1809Z
PROB30 TEMPO 1715/1720 04010KT 7000 TSRA BKN030 BKN045 FEW050CB
BECMG 1804/1806 08002KT 2000 BR BKN010 BKN090
BECMG 1807/1809 00000KT 0700 FG BKN007 BKN090